Latest Weather Observations for Cape Flattery

IDQ60801

Issued at 7:32 am EST Saturday 21 October 2017 (issued every 30 minutes, with the page automatically refreshed every 10 minutes)

About weather observations | Map of weather stations | Latest weather observations for QLD | Other Formats
Station Details ID: 031213 Name: CAPE FLATTERY Lat: -14.97 Lon: 145.31 Height: 18.5 m
Data from the previous 72 hours. | See also: Recent months at Cape Flattery
Date/Time
EST
Temp
°C
App
Temp
°C
Dew
Point
°C
Rel
Hum
%
Delta-T
°C
Wind Press
QNH
hPa
Press
MSL
hPa
Rain since
9am
mm
Dir  Spd
km/h
Gust
km/h
Spd
kts
Gust
kts
21/07:30am 24.3 26.8 23.1 93 0.8 ESE 15 22 8 12 1013.6 1013.5 0.6
21/07:00am 23.9 25.4 22.0 89 1.3 ESE 17 22 9 12 1013.3 1013.2 0.4
21/06:30am 25.0 26.5 22.7 87 1.6 ESE 19 24 10 13 1012.9 1012.8 0.2
21/06:00am 24.7 26.6 22.8 89 1.3 ESE 17 24 9 13 1012.8 1012.7 0.2
21/05:30am 24.7 26.5 22.6 88 1.4 ESE 17 22 9 12 1012.5 1012.4 0.2
21/05:00am 24.9 26.2 22.4 86 1.7 ESE 19 28 10 15 1012.4 1012.3 0.2
21/04:30am 24.9 26.2 22.6 87 1.5 SE 20 26 11 14 1012.4 1012.3 0.2
21/04:00am 24.6 26.5 22.7 89 1.3 SE 17 24 9 13 1012.2 1012.1 0.2
21/03:30am 24.8 26.1 22.7 88 1.4 SE 20 32 11 17 1012.2 1012.1 0.2
21/03:00am 24.8 26.7 22.7 88 1.4 ESE 17 28 9 15 1012.5 1012.4 0.2
21/02:30am 24.7 26.3 22.8 89 1.3 SE 19 26 10 14 1012.6 1012.5 0.2
21/02:00am 24.7 26.1 22.8 89 1.3 SE 20 28 11 15 1012.8 1012.7 0.2
21/01:30am 24.5 25.9 22.6 89 1.3 ESE 19 24 10 13 1013.1 1013.0 0.2
21/01:00am 24.6 25.1 22.7 89 1.3 ESE 24 35 13 19 1013.3 1013.2 0.2
21/12:30am 24.8 25.8 22.9 89 1.3 SE 22 35 12 19 1013.4 1013.3 0.2
21/12:00am 24.9 26.0 23.0 89 1.3 SE 22 28 12 15 1014.0 1013.9 0.2
 
Date/Time
EST
Temp
°C
App
Temp
°C
Dew
Point
°C
Rel
Hum
%
Delta-T
°C
Wind Press
QNH
hPa
Press
MSL
hPa
Rain since
9am
mm
Dir  Spd
km/h
Gust
km/h
Spd
kts
Gust
kts
20/11:30pm 25.0 26.5 23.1 89 1.3 SE 20 26 11 14 1014.5 1014.4 0.2
20/11:00pm 25.0 25.8 23.1 89 1.3 SE 24 33 13 18 1014.6 1014.5 0.2
20/10:30pm 25.0 25.8 23.1 89 1.3 SE 24 32 13 17 1015.1 1015.0 0.2
20/10:00pm 25.0 25.4 23.1 89 1.3 SE 26 35 14 19 1015.2 1015.1 0.2
20/09:30pm 25.1 26.0 23.3 90 1.2 SE 24 33 13 18 1014.9 1014.8 0.2
20/09:00pm 25.1 26.0 23.3 90 1.2 SE 24 33 13 18 1014.7 1014.6 0.2
20/08:30pm 24.8 25.1 22.9 89 1.3 SE 26 33 14 18 1014.4 1014.3 0.2
20/08:00pm 25.5 26.8 23.4 88 1.4 SE 22 32 12 17 1014.3 1014.2 0.2
20/07:30pm 25.0 25.7 22.9 88 1.4 SE 24 33 13 18 1014.1 1014.0 0.2
20/07:00pm 25.3 26.5 23.2 88 1.4 SE 22 30 12 16 1013.8 1013.7 0.2
20/06:30pm 25.3 26.5 23.2 88 1.4 SE 22 28 12 15 1013.3 1013.2 0.2
20/06:00pm 25.3 26.4 23.0 87 1.6 SE 22 33 12 18 1013.2 1013.1 0.2
20/05:30pm 25.3 26.5 23.2 88 1.4 SE 22 30 12 16 1013.0 1012.9 0.2
20/05:00pm 25.7 26.8 23.6 88 1.4 SE 24 33 13 18 1012.8 1012.7 0.2
20/04:30pm 26.6 27.1 22.7 79 2.6 SE 24 35 13 19 1012.7 1012.6 0.2
20/04:00pm 26.8 26.8 23.1 80 2.5 SE 28 39 15 21 1012.6 1012.5 0.2
20/03:30pm 26.8 26.6 22.8 79 2.7 SE 28 37 15 20 1012.8 1012.7 0.2
20/03:00pm 26.9 27.0 23.2 80 2.5 SE 28 39 15 21 1012.7 1012.6 0.2
20/02:30pm 26.9 27.2 22.9 79 2.7 SE 26 37 14 20 1013.1 1013.0 0.2
20/02:00pm 26.7 27.4 23.6 83 2.1 SE 26 35 14 19 1013.3 1013.2 0.2
20/01:30pm 26.8 27.4 23.5 82 2.3 SE 26 39 14 21 1013.6 1013.5 0.2
20/01:00pm 27.3 27.5 23.5 80 2.6 SE 28 43 15 23 1013.8 1013.7 0.2
20/12:30pm 27.2 27.3 23.2 79 2.7 SE 28 39 15 21 1014.1 1014.0 0.2
20/12:00pm 27.3 28.2 24.0 82 2.3 SE 26 37 14 20 1014.6 1014.5 0.2
20/11:30am 27.2 27.4 23.4 80 2.6 SE 28 39 15 21 1014.9 1014.8 0.2
20/11:00am 26.9 27.1 23.4 81 2.4 SE 28 35 15 19 1015.1 1015.0 0.0
20/10:30am 26.5 25.8 23.2 82 2.2 SE 32 41 17 22 1015.0 1014.9 0.0
20/10:00am 26.5 26.8 23.0 81 2.4 SE 26 35 14 19 1015.0 1014.9 0.0
20/09:30am 26.2 26.5 22.9 82 2.2 SE 26 37 14 20 1014.7 1014.6 0.0
20/09:00am 25.7 26.8 22.4 82 2.2 SE 20 30 11 16 1014.9 1014.8 13.2
20/08:30am 25.4 25.8 22.5 84 2.0 SE 24 35 13 19 1014.7 1014.6 13.2
20/08:00am 25.4 24.7 22.5 84 2.0 SE 30 43 16 23 1014.4 1014.3 13.2
20/07:30am 25.4 25.5 23.3 88 1.4 SE 28 35 15 19 1013.8 1013.7 13.2
20/07:00am 25.1 26.4 23.3 90 1.2 SE 22 32 12 17 1013.4 1013.3 13.2
20/06:30am 25.0 25.2 23.4 91 1.1 SE 28 39 15 21 1012.7 1012.6 13.2
20/06:00am 24.9 25.9 23.5 92 1.0 SE 24 32 13 17 1012.8 1012.7 13.2
20/05:30am 24.8 26.5 23.4 92 1.0 SE 20 30 11 16 1012.6 1012.5 13.2
20/05:00am 24.7 26.4 23.1 91 1.1 ESE 19 30 10 16 1012.5 1012.4 13.2
20/04:30am 24.5 27.1 23.3 93 0.8 ESE 15 20 8 11 1012.3 1012.2 13.2
20/04:00am 24.4 27.8 23.4 94 0.7 ESE 11 13 6 7 1012.2 1012.1 13.2
20/03:30am 24.8 28.4 23.8 94 0.7 ESE 11 17 6 9 1012.1 1012.0 13.2
20/03:00am 24.7 27.1 23.7 94 0.7 ESE 17 24 9 13 1011.8 1011.7 13.2
20/02:30am 24.6 26.4 23.6 94 0.7 ESE 20 28 11 15 1011.9 1011.8 13.2
20/02:00am 24.4 27.1 23.5 95 0.6 ESE 15 22 8 12 1012.4 1012.3 13.2
20/01:30am 24.5 27.0 23.8 96 0.5 ESE 17 24 9 13 1012.8 1012.7 13.2
20/01:00am 24.4 26.3 23.7 96 0.5 ESE 20 26 11 14 1013.2 1013.1 13.2
20/12:30am 24.5 26.6 23.8 96 0.5 ESE 19 30 10 16 1013.5 1013.4 13.2
20/12:00am 24.2 26.0 23.5 96 0.5 ESE 20 28 11 15 1013.7 1013.6 13.2
 
Date/Time
EST
Temp
°C
App
Temp
°C
Dew
Point
°C
Rel
Hum
%
Delta-T
°C
Wind Press
QNH
hPa
Press
MSL
hPa
Rain since
9am
mm
Dir  Spd
km/h
Gust
km/h
Spd
kts
Gust
kts
19/11:30pm 24.1 27.1 23.4 96 0.5 ESE 13 20 7 11 1014.5 1014.4 13.2
19/11:00pm 23.8 25.5 23.1 96 0.5 SE 19 24 10 13 1014.9 1014.8 13.0
19/10:30pm 23.1 22.5 21.9 93 0.8 ESE 28 43 15 23 1015.2 1015.1 12.6
19/10:00pm 25.0 26.9 23.4 91 1.1 ESE 19 28 10 15 1014.7 1014.6 10.4
19/09:30pm 24.9 27.1 23.3 91 1.1 ESE 17 20 9 11 1014.6 1014.5 10.4
19/09:00pm 24.9 27.1 23.3 91 1.1 ESE 17 26 9 14 1014.3 1014.2 10.2
19/08:30pm 24.9 27.1 23.3 91 1.1 E 17 24 9 13 1014.0 1013.9 10.2
19/08:00pm 24.9 25.7 23.1 90 1.2 ESE 24 37 13 20 1013.5 1013.4 10.2
19/07:30pm 24.8 26.6 23.2 91 1.1 ESE 19 28 10 15 1013.1 1013.0 10.2
19/07:00pm 24.7 25.8 23.1 91 1.1 ESE 22 35 12 19 1012.6 1012.5 10.2
19/06:30pm 24.5 25.9 22.9 91 1.1 E 20 30 11 16 1012.6 1012.5 10.2
19/06:00pm 24.4 26.0 23.2 93 0.8 E 20 32 11 17 1012.2 1012.1 10.2
19/05:30pm 24.4 24.2 22.8 91 1.1 E 28 43 15 23 1011.7 1011.6 10.0
19/05:00pm 24.9 24.7 22.8 88 1.4 E 28 39 15 21 1011.2 1011.1 9.6
19/04:30pm 24.8 25.4 23.4 92 1.0 E 26 39 14 21 1010.8 1010.7 9.6
19/04:00pm 24.8 27.2 23.6 93 0.8 ENE 17 24 9 13 1010.7 1010.6 9.4
19/03:30pm 24.8 25.9 23.6 93 0.8 ENE 24 41 13 22 1010.4 1010.3 9.4
19/03:00pm 24.5 25.5 23.5 94 0.7 E 24 43 13 23 1010.3 1010.2 9.2
19/02:30pm 24.5 27.3 23.6 95 0.6 ESE 15 24 8 13 1010.7 1010.6 8.2
19/02:00pm 24.6 26.5 23.7 95 0.6 ESE 20 30 11 16 1010.8 1010.7 7.0
19/01:30pm 24.5 25.5 22.8 90 1.1 ESE 22 39 12 21 1011.7 1011.6 3.4
19/01:00pm 25.0 26.8 23.2 90 1.2 ESE 19 24 10 13 1011.6 1011.5 3.0
19/12:30pm 25.0 27.0 23.6 92 1.0 SE 19 24 10 13 1012.0 1011.9 3.0
19/12:00pm 25.7 26.8 23.0 85 1.8 SSE 22 30 12 16 1012.3 1012.2 0.0
19/11:30am 26.0 26.8 22.5 81 2.4 SSE 22 32 12 17 1012.6 1012.5 0.0
19/11:00am 27.4 28.2 22.4 74 3.4 ESE 22 28 12 15 1012.8 1012.7 0.0
19/10:30am 28.7 29.1 22.4 68 4.3 ESE 24 35 13 19 1013.1 1013.0 0.0
19/10:00am 27.6 28.2 22.8 75 3.3 E 24 33 13 18 1013.3 1013.2 0.0
19/09:30am 27.8 28.0 22.7 74 3.5 E 26 35 14 19 1013.3 1013.2 0.0
19/09:00am 28.1 29.2 23.0 74 3.5 E 22 35 12 19 1013.1 1013.0 1.0
19/08:30am 27.3 27.7 22.5 75 3.2 E 24 37 13 20 1012.8 1012.7 1.0
19/08:00am 25.8 25.9 21.9 79 2.6 E 24 37 13 20 1012.7 1012.6 0.8
19/07:30am 25.4 25.5 22.5 84 2.0 E 26 41 14 22 1012.2 1012.1 0.8
19/07:00am 25.0 26.2 23.2 90 1.2 ENE 22 37 12 20 1011.8 1011.7 0.8
19/06:30am 25.2 26.1 23.3 89 1.3 ENE 24 35 13 19 1011.2 1011.1 0.6
19/06:00am 25.2 26.9 23.4 90 1.2 ENE 20 32 11 17 1010.8 1010.7 0.6
19/05:30am 25.2 27.5 23.4 90 1.2 ENE 17 28 9 15 1010.3 1010.2 0.6
19/05:00am 25.2 27.9 23.4 90 1.2 ENE 15 20 8 11 1010.1 1010.0 0.6
19/04:30am 25.1 28.5 23.3 90 1.2 E 11 20 6 11 1009.9 1009.8 0.6
19/04:00am 24.9 27.4 23.1 90 1.2 ENE 15 24 8 13 1009.5 1009.4 0.6
19/03:30am 24.9 27.5 23.3 91 1.1 E 15 28 8 15 1008.1 1008.0 0.6
19/03:00am 24.8 26.4 23.2 91 1.1 ENE 20 28 11 15 1008.9 1008.8 0.6
19/02:30am 24.9 27.1 23.3 91 1.1 E 17 26 9 14 1009.9 1009.8 0.6
19/02:00am 25.0 28.0 23.4 91 1.1 ENE 13 24 7 13 1009.6 1009.5 0.6
19/01:30am 24.9 26.7 23.5 92 1.0 E 20 30 11 16 1009.5 1009.4 0.6
19/01:00am 25.1 27.2 23.7 92 1.0 E 19 28 10 15 1009.8 1009.7 0.4
19/12:30am 25.1 28.2 23.5 91 1.1 ESE 13 17 7 9 1010.8 1010.7 0.2
19/12:00am 25.2 27.3 23.1 88 1.4 ESE 17 24 9 13 1011.3 1011.2 0.2
 
Date/Time
EST
Temp
°C
App
Temp
°C
Dew
Point
°C
Rel
Hum
%
Delta-T
°C
Wind Press
QNH
hPa
Press
MSL
hPa
Rain since
9am
mm
Dir  Spd
km/h
Gust
km/h
Spd
kts
Gust
kts
18/11:30pm 25.3 28.1 23.0 87 1.6 ESE 13 17 7 9 1012.0 1011.9 0.2
18/11:00pm 25.4 26.7 22.7 85 1.8 SE 20 28 11 15 1011.8 1011.7 0.2
18/10:30pm 25.5 25.9 22.4 83 2.1 SE 24 33 13 18 1012.3 1012.2 0.2
18/10:00pm 25.5 25.5 22.4 83 2.1 SE 26 35 14 19 1012.0 1011.9 0.2
18/09:30pm 25.4 25.7 22.3 83 2.1 SE 24 33 13 18 1011.9 1011.8 0.2
18/09:00pm 25.2 25.1 22.3 84 1.9 SE 26 37 14 20 1011.4 1011.3 0.2
18/08:30pm 25.2 25.1 22.3 84 1.9 SE 26 33 14 18 1011.4 1011.3 0.2
18/08:00pm 25.2 25.1 22.3 84 1.9 SE 26 37 14 20 1011.0 1010.9 0.2
18/07:30pm 25.1 25.4 22.2 84 1.9 ESE 24 37 13 20 1010.5 1010.4 0.2
18/07:00pm 25.3 25.6 22.2 83 2.1 ESE 24 33 13 18 1010.2 1010.1 0.2
18/06:30pm 25.5 25.9 22.4 83 2.1 ESE 24 35 13 19 1010.0 1009.9 0.2
18/06:00pm 25.6 25.9 22.3 82 2.2 ESE 24 33 13 18 1009.9 1009.8 0.2
18/05:30pm 25.9 26.2 22.2 80 2.5 ESE 24 35 13 19 1009.3 1009.2 0.2
18/05:00pm 26.0 26.9 21.9 78 2.7 E 20 30 11 16 1008.8 1008.7 0.2
18/04:30pm 26.4 27.9 22.0 77 2.9 ESE 17 22 9 12 1008.7 1008.6 0.2
18/04:00pm 26.6 27.3 21.6 74 3.3 ESE 20 28 11 15 1008.8 1008.7 0.2
18/03:30pm 27.2 28.1 22.6 76 3.1 SE 22 28 12 15 1008.9 1008.8 0.2
18/03:00pm 26.7 27.5 21.7 74 3.3 SE 20 26 11 14 1009.1 1009.0 0.2
18/02:30pm 26.9 26.9 21.0 70 3.9 SE 22 28 12 15 1009.3 1009.2 0.2
18/02:00pm 27.0 26.4 21.3 71 3.8 SE 26 35 14 19 1009.6 1009.5 0.2
18/01:30pm 27.7 27.2 22.9 75 3.3 SE 30 41 16 22 1009.7 1009.6 0.2
18/01:00pm 26.2 25.1 21.8 77 2.9 SE 30 39 16 21 1009.9 1009.8 0.2
18/12:30pm 26.0 24.3 21.4 76 3.1 SSE 32 41 17 22 1010.2 1010.1 0.2
18/12:00pm 26.8 25.0 21.6 73 3.5 SSE 33 43 18 23 1010.5 1010.4 0.2
18/11:30am 25.9 24.4 21.8 78 2.7 SSE 32 43 17 23 1010.8 1010.7 0.0
18/11:00am 25.6 24.0 21.9 80 2.5 SSE 33 43 18 23 1011.1 1011.0 0.0
18/10:30am 25.4 25.1 23.3 88 1.4 SSE 30 39 16 21 1011.3 1011.2 0.0
18/10:00am 24.2 24.4 22.1 88 1.4 SSE 24 33 13 18 1011.3 1011.2 0.0
18/09:30am 24.8 24.6 22.1 85 1.8 SSE 26 35 14 19 1011.3 1011.2 0.0
18/09:00am 23.9 24.2 22.2 90 1.1 SSE 24 33 13 18 1011.2 1011.1 2.2
18/08:30am 23.7 24.3 22.1 91 1.1 SSE 22 30 12 16 1011.3 1011.2 2.2
18/08:00am 23.5 23.6 21.8 90 1.1 SSE 24 32 13 17 1010.9 1010.8 2.0

Other Formats:

Comma delimited format used in spreadsheet applications
http://www.bom.gov.au/fwo/IDQ60801/IDQ60801.94188.axf

JavaScript Object Notation format (JSON) in row-major order
http://www.bom.gov.au/fwo/IDQ60801/IDQ60801.94188.json